sensor_id;sensor_type;location;lat;lon;timestamp;temperature;humidity
51486;DHT22;37565;51.352;6.412;2023-01-16T16:55:49;18.60;99.90
51486;DHT22;37565;51.352;6.412;2023-01-16T16:58:21;18.20;99.90
51486;DHT22;37565;51.352;6.412;2023-01-16T17:00:50;18.30;99.90
51486;DHT22;37565;51.352;6.412;2023-01-16T17:03:21;18.30;99.90
51486;DHT22;37565;51.352;6.412;2023-01-16T17:05:50;18.40;99.90
51486;DHT22;37565;51.352;6.412;2023-01-16T17:08:21;18.40;99.90
51486;DHT22;37565;51.352;6.412;2023-01-16T17:10:50;18.40;99.90
51486;DHT22;37565;51.352;6.412;2023-01-16T17:13:20;18.50;99.90
51486;DHT22;37565;51.352;6.412;2023-01-16T17:15:50;18.50;99.90
51486;DHT22;37565;51.352;6.412;2023-01-16T17:18:18;18.50;99.90
51486;DHT22;37565;51.352;6.412;2023-01-16T17:20:46;18.50;99.90
51486;DHT22;37565;51.352;6.412;2023-01-16T17:23:16;18.50;99.90
51486;DHT22;37565;51.352;6.412;2023-01-16T17:25:44;18.60;99.90
51486;DHT22;37565;51.352;6.412;2023-01-16T17:28:14;18.60;99.90
51486;DHT22;37565;51.352;6.412;2023-01-16T17:30:42;18.60;99.90
51486;DHT22;37565;51.352;6.412;2023-01-16T17:33:12;18.60;99.90
51486;DHT22;37565;51.352;6.412;2023-01-16T17:35:43;18.70;99.90
51486;DHT22;37565;51.352;6.412;2023-01-16T17:38:14;18.70;99.90
51486;DHT22;37565;51.352;6.412;2023-01-16T17:40:43;18.60;99.90
51486;DHT22;37565;51.352;6.412;2023-01-16T17:43:15;18.60;99.90
51486;DHT22;37565;51.352;6.412;2023-01-16T17:46:02;18.60;99.90
51486;DHT22;37565;51.352;6.412;2023-01-16T17:48:32;18.60;99.90
51486;DHT22;37565;51.352;6.412;2023-01-16T17:51:00;18.60;99.90
51486;DHT22;37565;51.352;6.412;2023-01-16T17:53:29;18.70;99.90
51486;DHT22;37565;51.352;6.412;2023-01-16T17:55:59;18.80;99.90
51486;DHT22;37565;51.352;6.412;2023-01-16T17:58:31;18.80;99.90
51486;DHT22;37565;51.352;6.412;2023-01-16T18:01:11;18.90;99.90
51486;DHT22;37565;51.352;6.412;2023-01-16T18:03:43;18.90;99.90
51486;DHT22;37565;51.352;6.412;2023-01-16T18:06:13;18.90;99.90
51486;DHT22;37565;51.352;6.412;2023-01-16T18:08:41;19.00;99.90
51486;DHT22;37565;51.352;6.412;2023-01-16T18:11:09;19.00;99.90
51486;DHT22;37565;51.352;6.412;2023-01-16T18:13:56;19.00;99.90
51486;DHT22;37565;51.352;6.412;2023-01-16T18:16:41;19.00;99.90
51486;DHT22;37565;51.352;6.412;2023-01-16T18:19:26;19.00;99.90
51486;DHT22;37565;51.352;6.412;2023-01-16T18:21:54;19.10;99.90
51486;DHT22;37565;51.352;6.412;2023-01-16T18:24:28;19.00;99.90
51486;DHT22;37565;51.352;6.412;2023-01-16T18:26:57;19.00;99.90
51486;DHT22;37565;51.352;6.412;2023-01-16T18:29:27;19.00;99.90
51486;DHT22;37565;51.352;6.412;2023-01-16T18:31:55;19.00;99.90
51486;DHT22;37565;51.352;6.412;2023-01-16T18:34:40;19.00;99.90
51486;DHT22;37565;51.352;6.412;2023-01-16T18:37:21;19.00;99.90
51486;DHT22;37565;51.352;6.412;2023-01-16T18:39:49;18.90;99.90
51486;DHT22;37565;51.352;6.412;2023-01-16T18:42:35;18.90;99.90
51486;DHT22;37565;51.352;6.412;2023-01-16T18:45:22;18.80;99.90
51486;DHT22;37565;51.352;6.412;2023-01-16T18:48:09;18.90;99.90
51486;DHT22;37565;51.352;6.412;2023-01-16T18:50:55;18.90;99.90
51486;DHT22;37565;51.352;6.412;2023-01-16T18:53:42;18.90;99.90
51486;DHT22;37565;51.352;6.412;2023-01-16T18:56:30;18.90;99.90
51486;DHT22;37565;51.352;6.412;2023-01-16T18:59:18;18.90;99.90
51486;DHT22;37565;51.352;6.412;2023-01-16T19:02:37;18.90;99.90
51486;DHT22;37565;51.352;6.412;2023-01-16T19:05:06;18.90;99.90
51486;DHT22;37565;51.352;6.412;2023-01-16T19:07:36;19.00;99.90
51486;DHT22;37565;51.352;6.412;2023-01-16T19:10:12;19.00;99.90
51486;DHT22;37565;51.352;6.412;2023-01-16T19:12:42;19.10;99.90
51486;DHT22;37565;51.352;6.412;2023-01-16T19:15:11;19.00;99.90
51486;DHT22;37565;51.352;6.412;2023-01-16T19:17:41;18.90;99.90
51486;DHT22;37565;51.352;6.412;2023-01-16T19:20:10;18.80;99.90
51486;DHT22;37565;51.352;6.412;2023-01-16T19:22:38;18.70;99.90
51486;DHT22;37565;51.352;6.412;2023-01-16T19:25:07;18.70;99.90
51486;DHT22;37565;51.352;6.412;2023-01-16T19:27:35;18.70;99.90
51486;DHT22;37565;51.352;6.412;2023-01-16T19:30:04;18.70;99.90
51486;DHT22;37565;51.352;6.412;2023-01-16T19:32:32;18.70;99.90
51486;DHT22;37565;51.352;6.412;2023-01-16T19:35:02;18.80;99.90
51486;DHT22;37565;51.352;6.412;2023-01-16T19:37:30;18.80;99.90
51486;DHT22;37565;51.352;6.412;2023-01-16T19:39:59;18.80;99.90
51486;DHT22;37565;51.352;6.412;2023-01-16T19:42:29;18.80;99.90
51486;DHT22;37565;51.352;6.412;2023-01-16T19:45:14;18.80;99.90
51486;DHT22;37565;51.352;6.412;2023-01-16T19:48:00;18.80;99.90
51486;DHT22;37565;51.352;6.412;2023-01-16T19:50:29;18.70;99.90
51486;DHT22;37565;51.352;6.412;2023-01-16T19:52:58;18.80;99.90
51486;DHT22;37565;51.352;6.412;2023-01-16T19:55:26;18.70;99.90
51486;DHT22;37565;51.352;6.412;2023-01-16T19:57:53;18.70;99.90
51486;DHT22;37565;51.352;6.412;2023-01-16T20:00:21;18.80;99.90
51486;DHT22;37565;51.352;6.412;2023-01-16T20:02:49;18.80;99.90
51486;DHT22;37565;51.352;6.412;2023-01-16T20:05:19;18.80;99.90
51486;DHT22;37565;51.352;6.412;2023-01-16T20:07:48;18.70;99.90
51486;DHT22;37565;51.352;6.412;2023-01-16T20:10:17;18.70;99.90
51486;DHT22;37565;51.352;6.412;2023-01-16T20:12:46;18.70;99.90
51486;DHT22;37565;51.352;6.412;2023-01-16T20:15:14;18.80;99.90
51486;DHT22;37565;51.352;6.412;2023-01-16T20:17:45;18.80;99.90
51486;DHT22;37565;51.352;6.412;2023-01-16T20:20:14;18.70;99.90
51486;DHT22;37565;51.352;6.412;2023-01-16T20:22:42;18.70;99.90
51486;DHT22;37565;51.352;6.412;2023-01-16T20:25:13;18.70;99.90
51486;DHT22;37565;51.352;6.412;2023-01-16T20:27:41;18.80;99.90
51486;DHT22;37565;51.352;6.412;2023-01-16T20:30:11;18.80;99.90
51486;DHT22;37565;51.352;6.412;2023-01-16T20:32:40;18.80;99.90
51486;DHT22;37565;51.352;6.412;2023-01-16T20:35:08;18.90;99.90
51486;DHT22;37565;51.352;6.412;2023-01-16T20:37:37;18.90;99.90
51486;DHT22;37565;51.352;6.412;2023-01-16T20:40:06;18.90;99.90
51486;DHT22;37565;51.352;6.412;2023-01-16T20:42:36;18.80;99.90
51486;DHT22;37565;51.352;6.412;2023-01-16T20:45:21;18.70;99.90
51486;DHT22;37565;51.352;6.412;2023-01-16T20:48:07;18.70;99.90
51486;DHT22;37565;51.352;6.412;2023-01-16T20:50:35;18.70;99.90
51486;DHT22;37565;51.352;6.412;2023-01-16T20:53:03;18.80;99.90
51486;DHT22;37565;51.352;6.412;2023-01-16T20:55:31;18.80;99.90
51486;DHT22;37565;51.352;6.412;2023-01-16T20:58:06;18.80;99.90
51486;DHT22;37565;51.352;6.412;2023-01-16T21:00:36;18.80;99.90
51486;DHT22;37565;51.352;6.412;2023-01-16T21:03:04;18.90;99.90
51486;DHT22;37565;51.352;6.412;2023-01-16T21:05:33;19.00;99.90
51486;DHT22;37565;51.352;6.412;2023-01-16T21:08:02;18.40;90.10
51486;DHT22;37565;51.352;6.412;2023-01-16T21:10:30;18.20;97.50
51486;DHT22;37565;51.352;6.412;2023-01-16T21:12:58;18.40;97.00
51486;DHT22;37565;51.352;6.412;2023-01-16T21:15:46;18.60;96.20
51486;DHT22;37565;51.352;6.412;2023-01-16T21:18:14;18.80;95.70
51486;DHT22;37565;51.352;6.412;2023-01-16T21:21:00;18.90;95.30
51486;DHT22;37565;51.352;6.412;2023-01-16T21:23:45;18.90;94.90
51486;DHT22;37565;51.352;6.412;2023-01-16T21:26:14;18.90;94.60
51486;DHT22;37565;51.352;6.412;2023-01-16T21:28:41;19.00;94.40
51486;DHT22;37565;51.352;6.412;2023-01-16T21:31:11;19.00;94.20
51486;DHT22;37565;51.352;6.412;2023-01-16T21:33:39;19.00;94.30
51486;DHT22;37565;51.352;6.412;2023-01-16T21:36:07;19.00;93.60
51486;DHT22;37565;51.352;6.412;2023-01-16T21:38:38;19.00;93.60
51486;DHT22;37565;51.352;6.412;2023-01-16T21:41:08;18.90;93.50
51486;DHT22;37565;51.352;6.412;2023-01-16T21:43:36;18.90;93.50
51486;DHT22;37565;51.352;6.412;2023-01-16T21:46:23;18.90;93.90
51486;DHT22;37565;51.352;6.412;2023-01-16T21:48:59;18.90;94.20
51486;DHT22;37565;51.352;6.412;2023-01-16T21:51:28;18.90;94.50
51486;DHT22;37565;51.352;6.412;2023-01-16T21:53:57;19.00;94.90
51486;DHT22;37565;51.352;6.412;2023-01-16T21:56:25;18.90;95.10
51486;DHT22;37565;51.352;6.412;2023-01-16T21:58:53;19.00;95.60
51486;DHT22;37565;51.352;6.412;2023-01-16T22:01:24;19.00;95.60
51486;DHT22;37565;51.352;6.412;2023-01-16T22:03:52;19.00;95.90
51486;DHT22;37565;51.352;6.412;2023-01-16T22:06:20;19.00;96.10
51486;DHT22;37565;51.352;6.412;2023-01-16T22:08:48;19.00;96.40
51486;DHT22;37565;51.352;6.412;2023-01-16T22:11:17;19.00;96.60
51486;DHT22;37565;51.352;6.412;2023-01-16T22:14:02;19.00;96.80
51486;DHT22;37565;51.352;6.412;2023-01-16T22:16:50;19.00;97.30
51486;DHT22;37565;51.352;6.412;2023-01-16T22:19:50;19.00;97.10
51486;DHT22;37565;51.352;6.412;2023-01-16T22:22:24;19.00;97.10
51486;DHT22;37565;51.352;6.412;2023-01-16T22:24:55;19.00;97.30
51486;DHT22;37565;51.352;6.412;2023-01-16T22:27:25;19.00;97.30
